createdAt,value
2023-04-07T00:00:21.579Z,67.31
2023-04-07T00:01:21.553Z,71.39
2023-04-07T00:02:21.661Z,74.20
2023-04-07T00:03:21.615Z,71.29
2023-04-07T00:04:21.682Z,73.39
2023-04-07T00:05:21.495Z,71.92
2023-04-07T00:06:21.469Z,71.59
2023-04-07T00:07:21.443Z,68.43
2023-04-07T00:08:21.432Z,69.47
2023-04-07T00:09:21.439Z,68.70
2023-04-07T00:10:21.394Z,71.57
2023-04-07T00:11:21.374Z,68.93
2023-04-07T00:12:21.350Z,72.71
2023-04-07T00:13:21.355Z,70.15
2023-04-07T00:14:21.371Z,68.07
2023-04-07T00:15:21.321Z,73.26
2023-04-07T00:16:21.378Z,73.00
2023-04-07T00:17:21.264Z,72.20
2023-04-07T00:18:21.245Z,69.57
2023-04-07T00:19:21.252Z,69.02
2023-04-07T00:20:21.202Z,73.04
2023-04-07T00:21:21.196Z,73.41
2023-04-07T00:22:21.169Z,69.53
2023-04-07T00:23:21.162Z,69.01
2023-04-07T00:24:33.406Z,69.59
2023-04-07T00:25:23.119Z,68.24
2023-04-07T00:26:21.113Z,72.48
2023-04-07T00:27:21.076Z,70.99
2023-04-07T00:28:21.066Z,67.89
2023-04-07T00:29:21.066Z,70.09
2023-04-07T00:30:21.022Z,68.84
2023-04-07T00:31:21.021Z,69.40
2023-04-07T00:32:20.988Z,69.79
2023-04-07T00:33:20.964Z,71.54
2023-04-07T00:34:20.985Z,70.58
2023-04-07T00:35:20.937Z,72.46
2023-04-07T00:36:20.912Z,67.16
2023-04-07T00:37:20.891Z,68.47
2023-04-07T00:38:20.874Z,70.50
2023-04-07T00:39:20.877Z,67.77
2023-04-07T00:40:20.835Z,71.84
2023-04-07T00:41:20.819Z,71.54
2023-04-07T00:42:20.794Z,71.16
2023-04-07T00:43:20.778Z,69.98
2023-04-07T00:44:20.786Z,69.71
2023-04-07T00:45:20.741Z,69.82
2023-04-07T00:46:20.746Z,71.68
2023-04-07T00:47:20.736Z,69.92
2023-04-07T00:48:20.688Z,67.49
2023-04-07T00:49:20.692Z,68.82
2023-04-07T00:50:20.651Z,68.53
2023-04-07T00:51:20.636Z,72.68
2023-04-07T00:52:20.608Z,69.28
2023-04-07T00:53:20.588Z,68.50
2023-04-07T00:54:20.598Z,69.28
2023-04-07T00:55:20.567Z,69.51
2023-04-07T00:56:20.537Z,71.09
2023-04-07T00:57:20.511Z,68.51
2023-04-07T00:58:20.494Z,68.51
2023-04-07T00:59:20.512Z,67.26
2023-04-07T01:00:20.459Z,69.67
2023-04-07T01:01:20.462Z,73.09
2023-04-07T01:02:20.456Z,70.05
2023-04-07T01:03:20.736Z,68.05
2023-04-07T01:04:20.450Z,73.08
2023-04-07T01:05:20.355Z,72.85
2023-04-07T01:06:20.335Z,71.07
2023-04-07T01:07:20.319Z,72.32
2023-04-07T01:08:20.306Z,73.13
2023-04-07T01:09:20.337Z,67.44
2023-04-07T01:10:20.264Z,68.85
2023-04-07T01:11:20.244Z,72.13
2023-04-07T01:12:20.227Z,68.55
2023-04-07T01:13:20.203Z,69.76
2023-04-07T01:14:20.184Z,70.31
2023-04-07T01:15:20.193Z,69.85
2023-04-07T01:16:20.192Z,70.51
2023-04-07T01:17:20.128Z,73.54
2023-04-07T01:18:20.109Z,71.67
2023-04-07T01:19:20.096Z,69.88
2023-04-07T01:20:20.091Z,68.31
2023-04-07T01:21:20.052Z,71.22
2023-04-07T01:22:20.034Z,68.53
2023-04-07T01:23:20.025Z,71.02
2023-04-07T01:24:19.995Z,70.45
2023-04-07T01:25:20.031Z,71.81
2023-04-07T01:26:19.957Z,69.23
2023-04-07T01:27:19.931Z,68.80
2023-04-07T01:28:19.916Z,70.44
2023-04-07T01:29:19.898Z,73.52
2023-04-07T01:30:19.918Z,70.06
2023-04-07T01:31:19.868Z,72.13
2023-04-07T01:32:19.841Z,73.24
2023-04-07T01:33:19.827Z,72.96
2023-04-07T01:34:19.815Z,70.56
2023-04-07T01:35:19.811Z,71.78
2023-04-07T01:36:19.767Z,72.35
2023-04-07T01:37:19.899Z,72.72
2023-04-07T01:38:19.729Z,71.73
2023-04-07T01:39:19.708Z,68.71
2023-04-07T01:40:19.714Z,71.80
2023-04-07T01:41:19.669Z,71.75
2023-04-07T01:42:19.674Z,69.47
2023-04-07T01:43:19.725Z,72.72
2023-04-07T01:44:19.611Z,70.75
2023-04-07T01:45:19.650Z,74.31
2023-04-07T01:46:19.672Z,72.18
2023-04-07T01:47:19.622Z,69.29
2023-04-07T01:48:19.664Z,71.35
2023-04-07T01:49:19.523Z,68.59
2023-04-07T01:50:19.529Z,72.27
2023-04-07T01:51:19.490Z,70.59
2023-04-07T01:52:19.468Z,71.03
2023-04-07T01:53:19.448Z,70.33
2023-04-07T01:54:19.437Z,73.17
2023-04-07T01:55:19.457Z,70.33
2023-04-07T01:56:19.390Z,71.68
2023-04-07T01:57:19.380Z,66.84
2023-04-07T01:58:19.352Z,71.16
2023-04-07T01:59:19.332Z,71.07
2023-04-07T02:00:19.341Z,70.02
2023-04-07T02:01:19.362Z,72.88
2023-04-07T02:02:19.364Z,73.07
2023-04-07T02:03:19.493Z,72.92
2023-04-07T02:04:19.273Z,71.87
2023-04-07T02:05:19.253Z,70.99
2023-04-07T02:06:19.209Z,71.07
2023-04-07T02:07:19.187Z,71.04
2023-04-07T02:08:19.179Z,73.05
2023-04-07T02:09:19.157Z,69.79
2023-04-07T02:10:19.161Z,71.76
2023-04-07T02:11:19.118Z,68.61
2023-04-07T02:12:19.112Z,70.16
2023-04-07T02:13:19.092Z,72.94
2023-04-07T02:14:19.064Z,71.00
2023-04-07T02:15:19.070Z,68.94
2023-04-07T02:16:19.061Z,72.68
2023-04-07T02:17:19.010Z,67.60
2023-04-07T02:18:18.995Z,67.91
2023-04-07T02:19:18.971Z,69.86
2023-04-07T02:20:18.984Z,72.52
2023-04-07T02:21:18.949Z,71.78
2023-04-07T02:22:18.923Z,69.71
2023-04-07T02:23:18.904Z,72.04
2023-04-07T02:24:18.881Z,69.34
2023-04-07T02:25:18.890Z,72.41
2023-04-07T02:26:18.850Z,69.07
2023-04-07T02:27:18.842Z,68.80
2023-04-07T02:28:18.805Z,70.34
2023-04-07T02:29:18.800Z,69.61
2023-04-07T02:30:18.798Z,74.12
2023-04-07T02:31:18.825Z,71.95
2023-04-07T02:32:18.736Z,71.40
2023-04-07T02:33:18.716Z,72.37
2023-04-07T02:34:18.699Z,71.36
2023-04-07T02:35:18.716Z,72.99
2023-04-07T02:36:18.696Z,70.30
2023-04-07T02:37:18.649Z,72.57
2023-04-07T02:38:18.629Z,72.25
2023-04-07T02:39:18.606Z,70.29
2023-04-07T02:40:18.591Z,70.25
2023-04-07T02:41:18.593Z,73.31
2023-04-07T02:42:18.551Z,67.81
2023-04-07T02:43:18.539Z,70.56
2023-04-07T02:44:18.525Z,72.29
2023-04-07T02:45:18.524Z,72.05
2023-04-07T02:46:18.542Z,71.04
2023-04-07T02:47:18.468Z,70.07
2023-04-07T02:48:18.442Z,71.44
2023-04-07T02:49:18.432Z,67.78
2023-04-07T02:50:18.426Z,71.79
2023-04-07T02:51:18.389Z,75.23
2023-04-07T02:52:18.366Z,72.13
2023-04-07T02:53:18.345Z,67.13
2023-04-07T02:54:18.324Z,70.58
2023-04-07T02:55:18.332Z,67.56
2023-04-07T02:56:18.288Z,73.00
2023-04-07T02:57:18.269Z,72.17
2023-04-07T02:58:18.254Z,72.10
2023-04-07T02:59:18.231Z,72.55
2023-04-07T03:00:18.240Z,71.64
2023-04-07T03:01:18.279Z,71.16
2023-04-07T03:02:18.227Z,70.61
2023-04-07T03:03:18.418Z,72.92
2023-04-07T03:04:18.288Z,75.71
2023-04-07T03:05:18.149Z,73.59
2023-04-07T03:06:18.106Z,72.59
2023-04-07T03:07:18.080Z,74.04
2023-04-07T03:08:18.070Z,71.11
2023-04-07T03:09:18.042Z,69.08
2023-04-07T03:10:18.050Z,71.34
2023-04-07T03:11:18.012Z,72.52
2023-04-07T03:12:18.002Z,71.87
2023-04-07T03:13:17.973Z,72.53
2023-04-07T03:14:17.950Z,71.24
2023-04-07T03:15:18.996Z,71.86
2023-04-07T03:16:18.928Z,73.00
2023-04-07T03:17:17.892Z,69.00
2023-04-07T03:18:17.882Z,71.62
2023-04-07T03:19:17.854Z,74.15
2023-04-07T03:20:17.889Z,74.94
2023-04-07T03:21:17.820Z,67.80
2023-04-07T03:22:17.809Z,73.68
2023-04-07T03:23:17.778Z,74.54
2023-04-07T03:24:17.763Z,73.92
2023-04-07T03:25:17.773Z,73.07
2023-04-07T03:26:17.749Z,73.73
2023-04-07T03:27:17.700Z,72.07
2023-04-07T03:28:17.684Z,74.01
2023-04-07T03:29:17.664Z,70.52
2023-04-07T03:30:17.672Z,72.22
2023-04-07T03:31:17.655Z,72.62
2023-04-07T03:32:17.610Z,72.52
2023-04-07T03:33:17.594Z,75.53
2023-04-07T03:34:17.571Z,72.77
2023-04-07T03:35:17.555Z,72.08
2023-04-07T03:36:17.603Z,73.96
2023-04-07T03:37:17.517Z,72.13
2023-04-07T03:38:18.516Z,72.23
2023-04-07T03:39:17.478Z,73.44
2023-04-07T03:40:17.468Z,71.22
2023-04-07T03:41:17.476Z,70.74
2023-04-07T03:42:17.425Z,70.38
2023-04-07T03:43:17.405Z,73.79
2023-04-07T03:44:17.496Z,72.45
2023-04-07T03:45:17.385Z,73.30
2023-04-07T03:46:17.417Z,74.93
2023-04-07T03:47:17.338Z,73.50
2023-04-07T03:48:17.308Z,73.18
2023-04-07T03:49:17.295Z,73.24
2023-04-07T03:50:17.268Z,73.67
2023-04-07T03:51:17.302Z,73.74
2023-04-07T03:52:17.236Z,74.30
2023-04-07T03:53:17.218Z,72.38
2023-04-07T03:54:17.193Z,72.85
2023-04-07T03:55:17.180Z,74.90
2023-04-07T03:56:17.198Z,73.52
2023-04-07T03:57:17.140Z,71.83
2023-04-07T03:58:17.136Z,74.69
2023-04-07T03:59:17.100Z,71.46
2023-04-07T04:00:17.085Z,72.50
2023-04-07T04:01:17.138Z,72.88
2023-04-07T04:02:17.070Z,74.68
2023-04-07T04:03:17.176Z,72.72
2023-04-07T04:04:17.297Z,74.67
2023-04-07T04:05:16.993Z,74.43
2023-04-07T04:06:16.992Z,73.02
2023-04-07T04:07:16.950Z,73.45
2023-04-07T04:08:16.932Z,73.73
2023-04-07T04:09:16.910Z,71.92
2023-04-07T04:10:16.891Z,70.49
2023-04-07T04:11:16.904Z,72.51
2023-04-07T04:12:16.857Z,72.80
2023-04-07T04:13:16.839Z,75.52
2023-04-07T04:14:16.821Z,75.15
2023-04-07T04:15:17.479Z,73.67
2023-04-07T04:16:17.181Z,76.64
2023-04-07T04:17:16.789Z,76.02
2023-04-07T04:18:16.756Z,72.50
2023-04-07T04:19:16.734Z,75.40
2023-04-07T04:20:16.714Z,73.98
2023-04-07T04:21:16.757Z,78.48
2023-04-07T04:22:16.678Z,76.36
2023-04-07T04:23:16.684Z,74.89
2023-04-07T04:24:16.643Z,73.20
2023-04-07T04:25:16.624Z,76.51
2023-04-07T04:26:16.631Z,73.26
2023-04-07T04:27:16.590Z,75.94
2023-04-07T04:28:16.571Z,75.57
2023-04-07T04:29:16.560Z,74.24
2023-04-07T04:30:16.525Z,75.80
2023-04-07T04:31:16.627Z,76.27
2023-04-07T04:32:16.487Z,70.43
2023-04-07T04:33:16.476Z,75.07
2023-04-07T04:34:16.455Z,74.07
2023-04-07T04:35:16.448Z,74.79
2023-04-07T04:36:16.490Z,76.79
2023-04-07T04:37:16.403Z,76.95
2023-04-07T04:38:16.394Z,75.00
2023-04-07T04:39:16.369Z,75.62
2023-04-07T04:40:16.352Z,76.76
2023-04-07T04:41:16.361Z,75.36
2023-04-07T04:42:16.324Z,76.00
2023-04-07T04:43:16.288Z,75.86
2023-04-07T04:44:16.277Z,75.23
2023-04-07T04:45:16.254Z,76.03
2023-04-07T04:46:16.270Z,74.07
2023-04-07T04:47:16.287Z,76.01
2023-04-07T04:48:16.228Z,76.00
2023-04-07T04:49:16.178Z,76.33
2023-04-07T04:50:16.165Z,75.36
2023-04-07T04:51:16.178Z,74.16
2023-04-07T04:52:16.119Z,76.79
2023-04-07T04:53:16.102Z,74.40
2023-04-07T04:54:16.083Z,75.48
2023-04-07T04:55:16.078Z,73.29
2023-04-07T04:56:16.086Z,75.76
2023-04-07T04:57:16.058Z,76.55
2023-04-07T04:58:16.009Z,76.03
2023-04-07T04:59:16.022Z,75.29
2023-04-07T05:00:15.971Z,75.07
2023-04-07T05:01:16.051Z,76.27
2023-04-07T05:02:16.170Z,72.96
2023-04-07T05:03:16.054Z,76.55
2023-04-07T05:04:15.952Z,75.21
2023-04-07T05:05:15.977Z,76.45
2023-04-07T05:06:15.881Z,76.03
2023-04-07T05:07:15.841Z,75.47
2023-04-07T05:08:15.814Z,75.18
2023-04-07T05:09:15.809Z,75.46
2023-04-07T05:10:15.781Z,75.24
2023-04-07T05:11:15.785Z,76.42
2023-04-07T05:12:15.751Z,76.91
2023-04-07T05:13:15.733Z,75.88
2023-04-07T05:14:15.707Z,76.77
2023-04-07T05:15:15.701Z,77.05
2023-04-07T05:16:15.766Z,76.42
2023-04-07T05:17:15.667Z,75.77
2023-04-07T05:18:15.640Z,74.46
2023-04-07T05:19:15.623Z,73.42
2023-04-07T05:20:15.606Z,77.58
2023-04-07T05:21:15.610Z,77.02
2023-04-07T05:22:15.592Z,75.16
2023-04-07T05:23:15.541Z,75.28
2023-04-07T05:24:15.529Z,74.98
2023-04-07T05:25:15.504Z,76.83
2023-04-07T05:26:15.489Z,75.73
2023-04-07T05:27:15.496Z,77.16
2023-04-07T05:28:15.447Z,76.34
2023-04-07T05:29:15.464Z,77.53
2023-04-07T05:30:15.411Z,74.49
2023-04-07T05:31:15.452Z,77.93
2023-04-07T05:32:15.378Z,74.94
2023-04-07T05:33:15.910Z,77.98
2023-04-07T05:34:15.335Z,75.67
2023-04-07T05:35:15.317Z,76.83
2023-04-07T05:36:15.441Z,76.18
2023-04-07T05:37:15.283Z,75.15
2023-04-07T05:38:15.264Z,76.41
2023-04-07T05:39:15.249Z,75.64
2023-04-07T05:40:15.228Z,76.31
2023-04-07T05:41:15.231Z,76.22
2023-04-07T05:42:15.193Z,77.84
2023-04-07T05:43:15.173Z,78.08
2023-04-07T05:44:15.906Z,77.78
2023-04-07T05:45:15.187Z,75.30
2023-04-07T05:46:15.263Z,76.26
2023-04-07T05:47:15.194Z,77.86
2023-04-07T05:48:15.076Z,76.33
2023-04-07T05:50:17.039Z,73.77
2023-04-07T05:51:15.081Z,76.84
2023-04-07T05:52:15.008Z,76.45
2023-04-07T05:53:15.001Z,74.73
2023-04-07T05:54:14.969Z,75.90
2023-04-07T05:55:14.955Z,76.57
2023-04-07T05:56:14.956Z,77.30
2023-04-07T05:57:14.922Z,77.69
2023-04-07T05:58:14.892Z,76.65
2023-04-07T05:59:14.886Z,76.82
2023-04-07T06:00:14.866Z,75.59
2023-04-07T06:01:14.864Z,77.30
2023-04-07T06:02:14.909Z,79.10
2023-04-07T06:03:14.900Z,76.86
2023-04-07T06:04:14.789Z,75.94
2023-04-07T06:05:14.822Z,74.71
2023-04-07T06:06:14.790Z,75.20
2023-04-07T06:07:14.735Z,76.41
2023-04-07T06:08:14.713Z,77.13
2023-04-07T06:09:14.691Z,75.53
2023-04-07T06:10:14.677Z,77.71
2023-04-07T06:11:14.684Z,77.82
2023-04-07T06:12:14.645Z,78.07
2023-04-07T06:13:14.625Z,78.02
2023-04-07T06:14:14.620Z,76.34
2023-04-07T06:15:14.589Z,75.49
2023-04-07T06:16:14.938Z,75.50
2023-04-07T06:17:14.555Z,76.12
2023-04-07T06:18:14.572Z,76.03
2023-04-07T06:19:14.510Z,76.62
2023-04-07T06:20:14.494Z,77.96
2023-04-07T06:21:14.508Z,76.93
2023-04-07T06:22:14.456Z,78.13
2023-04-07T06:23:14.441Z,75.71
2023-04-07T06:24:14.656Z,75.34
2023-04-07T06:25:14.418Z,76.45
2023-04-07T06:26:14.427Z,76.70
2023-04-07T06:27:14.403Z,77.67
2023-04-07T06:28:14.350Z,77.60
2023-04-07T06:29:14.344Z,75.74
2023-04-07T06:30:14.313Z,76.77
2023-04-07T06:31:14.355Z,77.94
2023-04-07T06:32:14.299Z,78.26
2023-04-07T06:33:14.257Z,77.66
2023-04-07T06:34:14.236Z,77.37
2023-04-07T06:35:14.228Z,76.81
2023-04-07T06:36:14.227Z,77.25
2023-04-07T06:37:14.223Z,78.14
2023-04-07T06:38:14.162Z,77.30
2023-04-07T06:39:14.150Z,77.88
2023-04-07T06:40:14.126Z,77.57
2023-04-07T06:41:14.132Z,76.60
2023-04-07T06:42:14.115Z,77.48
2023-04-07T06:43:14.071Z,77.72
2023-04-07T06:44:14.049Z,77.18
2023-04-07T06:45:14.032Z,76.90
2023-04-07T06:46:14.063Z,77.32
2023-04-07T06:47:14.028Z,77.37
2023-04-07T06:48:13.981Z,77.78
2023-04-07T06:49:13.964Z,78.40
2023-04-07T06:50:13.962Z,77.80
2023-04-07T06:51:13.931Z,77.47
2023-04-07T06:52:13.951Z,76.19
2023-04-07T06:53:13.903Z,77.51
2023-04-07T06:54:13.880Z,77.02
2023-04-07T06:55:13.871Z,75.16
2023-04-07T06:56:13.836Z,76.67
2023-04-07T06:57:13.847Z,76.83
2023-04-07T06:58:13.816Z,75.35
2023-04-07T06:59:13.783Z,75.53
2023-04-07T07:00:13.767Z,76.29
2023-04-07T07:01:13.769Z,76.50
2023-04-07T07:02:13.944Z,77.31
2023-04-07T07:03:13.909Z,78.53
2023-04-07T07:04:13.824Z,78.19
2023-04-07T07:05:13.680Z,77.43
2023-04-07T07:06:13.663Z,76.99
2023-04-07T07:07:13.672Z,77.05
2023-04-07T07:08:13.643Z,77.30
2023-04-07T07:09:13.605Z,76.76
2023-04-07T07:10:13.610Z,76.37
2023-04-07T07:11:13.577Z,76.73
2023-04-07T07:12:13.625Z,77.88
2023-04-07T07:13:13.538Z,76.60
2023-04-07T07:14:13.520Z,77.17
2023-04-07T07:15:13.511Z,78.10
2023-04-07T07:16:13.586Z,77.49
2023-04-07T07:17:13.681Z,76.97
2023-04-07T07:18:13.453Z,77.89
2023-04-07T07:19:13.429Z,77.39
2023-04-07T07:20:13.419Z,76.31
2023-04-07T07:21:13.400Z,76.97
2023-04-07T07:22:13.404Z,76.85
2023-04-07T07:23:13.366Z,78.45
2023-04-07T07:24:13.354Z,77.85
2023-04-07T07:25:13.322Z,78.87
2023-04-07T07:26:13.308Z,77.99
2023-04-07T07:27:13.308Z,76.96
2023-04-07T07:28:13.300Z,78.18
2023-04-07T07:29:13.249Z,77.35
2023-04-07T07:30:13.228Z,78.00
2023-04-07T07:31:13.331Z,78.09
2023-04-07T07:32:13.224Z,77.66
2023-04-07T07:33:13.214Z,77.65
2023-04-07T07:34:13.153Z,78.03
2023-04-07T07:35:13.141Z,77.36
2023-04-07T07:36:13.126Z,76.55
2023-04-07T07:37:13.165Z,75.87
2023-04-07T07:38:13.077Z,78.00
2023-04-07T07:39:13.062Z,76.26
2023-04-07T07:40:13.040Z,77.48
2023-04-07T07:41:13.029Z,77.09
2023-04-07T07:42:13.036Z,77.54
2023-04-07T07:43:12.986Z,78.05
2023-04-07T07:44:12.983Z,77.63
2023-04-07T07:45:12.944Z,78.56
2023-04-07T07:46:12.956Z,79.30
2023-04-07T07:47:12.940Z,78.80
2023-04-07T07:48:12.891Z,77.53
2023-04-07T07:49:12.882Z,76.88
2023-04-07T07:50:12.866Z,78.85
2023-04-07T07:51:12.837Z,79.02
2023-04-07T07:52:12.849Z,77.73
2023-04-07T07:53:12.833Z,77.20
2023-04-07T07:54:12.784Z,76.38
2023-04-07T07:55:12.757Z,78.66
2023-04-07T07:56:13.744Z,77.17
2023-04-07T07:57:12.753Z,77.50
2023-04-07T07:58:12.707Z,78.95
2023-04-07T07:59:12.695Z,78.37
2023-04-07T08:00:12.671Z,77.75
2023-04-07T08:01:12.656Z,78.02
2023-04-07T08:02:12.689Z,78.09
2023-04-07T08:03:12.706Z,77.80
2023-04-07T08:04:12.711Z,78.21
2023-04-07T08:05:12.590Z,77.73
2023-04-07T08:06:12.564Z,78.03
2023-04-07T08:07:12.578Z,77.28
2023-04-07T08:08:12.528Z,78.51
2023-04-07T08:09:12.541Z,77.87
2023-04-07T08:10:12.491Z,77.43
2023-04-07T08:11:12.473Z,77.02
2023-04-07T08:12:12.484Z,78.57
2023-04-07T08:13:12.460Z,78.37
2023-04-07T08:14:12.417Z,79.11
2023-04-07T08:15:12.397Z,78.68
2023-04-07T08:16:12.415Z,79.02
2023-04-07T08:17:12.384Z,79.07
2023-04-07T08:18:12.367Z,78.36
2023-04-07T08:19:12.329Z,78.17
2023-04-07T08:20:12.307Z,76.97
2023-04-07T08:21:12.288Z,77.28
2023-04-07T08:22:12.296Z,77.06
2023-04-07T08:23:12.257Z,77.23
2023-04-07T08:24:12.237Z,78.74
2023-04-07T08:25:12.213Z,78.56
2023-04-07T08:26:12.196Z,77.85
2023-04-07T08:27:12.205Z,77.48
2023-04-07T08:28:12.158Z,76.57
2023-04-07T08:29:12.147Z,77.74
2023-04-07T08:30:12.128Z,76.93
2023-04-07T08:31:12.132Z,77.71
2023-04-07T08:32:12.125Z,77.64
2023-04-07T08:33:12.091Z,77.57
2023-04-07T08:34:12.062Z,75.26
2023-04-07T08:35:12.057Z,76.30
2023-04-07T08:36:12.124Z,78.70
2023-04-07T08:37:12.049Z,78.33
2023-04-07T08:38:11.991Z,78.25
2023-04-07T08:39:11.982Z,78.21
2023-04-07T08:40:11.954Z,77.02
2023-04-07T08:41:11.946Z,78.01
2023-04-07T08:42:11.945Z,77.49
2023-04-07T08:43:11.898Z,77.69
2023-04-07T08:44:11.884Z,76.64
2023-04-07T08:45:11.872Z,77.47
2023-04-07T08:46:11.853Z,77.12
2023-04-07T08:47:11.906Z,76.84
2023-04-07T08:48:11.813Z,78.21
2023-04-07T08:49:11.795Z,77.99
2023-04-07T08:50:11.786Z,77.81
2023-04-07T08:51:11.761Z,78.21
2023-04-07T08:52:11.762Z,77.48
2023-04-07T08:53:11.725Z,77.29
2023-04-07T08:54:11.714Z,77.39
2023-04-07T08:55:11.680Z,77.83
2023-04-07T08:56:11.671Z,78.56
2023-04-07T08:57:11.672Z,78.06
2023-04-07T08:58:11.630Z,77.49
2023-04-07T08:59:11.616Z,77.65
2023-04-07T09:00:11.590Z,77.64
2023-04-07T09:01:11.653Z,77.97
2023-04-07T09:02:11.626Z,77.07
2023-04-07T09:03:11.977Z,77.91
2023-04-07T09:04:12.603Z,78.33
2023-04-07T09:05:11.512Z,77.57
2023-04-07T09:06:11.487Z,76.90
2023-04-07T09:07:11.494Z,77.64
2023-04-07T09:08:11.446Z,78.38
2023-04-07T09:09:11.455Z,78.25
2023-04-07T09:10:11.422Z,78.15
2023-04-07T09:11:11.398Z,77.72
2023-04-07T09:12:11.410Z,78.25
2023-04-07T09:13:11.381Z,78.42
2023-04-07T09:14:12.381Z,77.71
2023-04-07T09:15:11.453Z,78.06
2023-04-07T09:16:11.510Z,77.72
2023-04-07T09:17:11.424Z,77.57
2023-04-07T09:18:11.263Z,77.12
2023-04-07T09:19:11.250Z,77.71
2023-04-07T09:20:11.248Z,78.13
2023-04-07T09:21:11.218Z,77.98
2023-04-07T09:22:11.225Z,77.60
2023-04-07T09:23:11.183Z,78.57
2023-04-07T09:24:11.161Z,79.13
2023-04-07T09:25:11.154Z,78.25
2023-04-07T09:26:11.130Z,78.50
2023-04-07T09:27:11.130Z,78.51
2023-04-07T09:28:11.089Z,77.94
2023-04-07T09:29:11.075Z,76.20
2023-04-07T09:30:11.060Z,77.63
2023-04-07T09:31:11.045Z,77.84
2023-04-07T09:32:11.123Z,76.51
2023-04-07T09:33:11.089Z,77.76
2023-04-07T09:34:10.981Z,77.75
2023-04-07T09:35:10.968Z,78.09
2023-04-07T09:36:10.964Z,77.76
2023-04-07T09:37:10.959Z,77.29
2023-04-07T09:38:10.910Z,77.92
2023-04-07T09:39:10.902Z,77.90
2023-04-07T09:40:10.903Z,77.05
2023-04-07T09:41:10.884Z,78.06
2023-04-07T09:42:11.753Z,77.94
2023-04-07T09:43:10.828Z,78.01
2023-04-07T09:44:10.902Z,77.05
2023-04-07T09:45:12.012Z,76.89
2023-04-07T09:46:10.832Z,77.76
2023-04-07T09:47:10.789Z,77.45
2023-04-07T09:48:10.741Z,76.89
2023-04-07T09:49:10.724Z,75.98
2023-04-07T09:50:10.709Z,76.45
2023-04-07T09:51:10.689Z,77.49
2023-04-07T09:52:10.664Z,77.67
2023-04-07T09:53:10.687Z,77.53
2023-04-07T09:54:10.645Z,77.79
2023-04-07T09:55:10.628Z,78.44
2023-04-07T09:56:10.615Z,78.49
2023-04-07T09:57:10.619Z,78.85
2023-04-07T09:58:10.594Z,77.97
2023-04-07T09:59:10.555Z,77.44
2023-04-07T10:00:45.123Z,77.04
2023-04-07T10:01:10.589Z,76.60
2023-04-07T10:02:47.717Z,75.69
2023-04-07T10:03:10.563Z,78.32
2023-04-07T10:04:44.073Z,78.43
2023-04-07T10:05:10.478Z,77.88
2023-04-07T10:06:45.551Z,77.49
2023-04-07T10:07:44.132Z,76.65
2023-04-07T10:08:10.432Z,77.00
2023-04-07T10:09:44.005Z,78.09
2023-04-07T10:10:45.506Z,77.53
2023-04-07T10:11:43.989Z,77.17
2023-04-07T10:12:44.006Z,78.12
2023-04-07T10:13:43.993Z,77.65
2023-04-07T10:14:47.447Z,77.16
2023-04-07T10:15:10.347Z,78.02
2023-04-07T10:16:43.995Z,77.43
2023-04-07T10:17:10.309Z,76.32
2023-04-07T10:18:43.957Z,75.74
2023-04-07T10:19:45.382Z,77.10
2023-04-07T10:20:45.337Z,78.44
2023-04-07T10:21:47.349Z,76.02
2023-04-07T10:22:45.722Z,77.30
2023-04-07T10:23:47.594Z,77.13
2023-04-07T10:24:47.358Z,74.55
2023-04-07T10:25:47.316Z,75.53
2023-04-07T10:26:43.835Z,77.38
2023-04-07T10:27:43.812Z,74.59
2023-04-07T10:28:47.321Z,76.67
2023-04-07T10:29:10.167Z,77.08
2023-04-07T10:30:43.808Z,76.30
2023-04-07T10:31:43.735Z,77.19
2023-04-07T10:32:45.357Z,77.41
2023-04-07T10:33:43.697Z,75.76
2023-04-07T10:34:43.691Z,77.67
2023-04-07T10:35:43.721Z,75.07
2023-04-07T10:36:43.672Z,76.27
2023-04-07T10:37:43.757Z,74.36
2023-04-07T10:38:43.835Z,76.45
2023-04-07T10:39:43.633Z,75.38
2023-04-07T10:40:47.100Z,76.52
2023-04-07T10:41:43.601Z,75.81
2023-04-07T10:42:43.648Z,76.65
2023-04-07T10:43:45.122Z,74.88
2023-04-07T10:44:43.600Z,75.72
2023-04-07T10:45:43.570Z,76.52
2023-04-07T10:46:43.599Z,75.10
2023-04-07T10:47:47.101Z,76.82
2023-04-07T10:48:43.518Z,77.54
2023-04-07T10:49:43.514Z,75.53
2023-04-07T10:50:43.471Z,75.93
2023-04-07T10:51:46.954Z,76.70
2023-04-07T10:52:45.001Z,75.25
2023-04-07T10:53:43.471Z,76.33
2023-04-07T10:54:43.469Z,76.14
2023-04-07T10:55:43.426Z,73.98
2023-04-07T10:56:43.397Z,76.72
2023-04-07T10:57:44.938Z,74.42
2023-04-07T10:58:43.392Z,74.32
2023-04-07T10:59:44.854Z,76.18
2023-04-07T11:00:44.844Z,75.95
2023-04-07T11:01:09.768Z,73.82
2023-04-07T11:02:43.505Z,74.57
2023-04-07T11:03:44.373Z,74.39
2023-04-07T11:04:43.325Z,75.13
2023-04-07T11:05:43.289Z,75.68
2023-04-07T11:06:43.232Z,74.03
2023-04-07T11:07:43.336Z,75.39
2023-04-07T11:08:09.648Z,75.85
2023-04-07T11:09:43.213Z,75.54
2023-04-07T11:10:43.196Z,74.80
2023-04-07T11:11:44.675Z,76.16
2023-04-07T11:12:43.239Z,76.93
2023-04-07T11:13:46.972Z,75.96
2023-04-07T11:14:43.156Z,77.82
2023-04-07T11:15:43.169Z,76.43
2023-04-07T11:16:43.334Z,74.16
2023-04-07T11:17:43.188Z,73.79
2023-04-07T11:18:44.569Z,76.61
2023-04-07T11:19:43.099Z,75.71
2023-04-07T11:20:44.387Z,74.69
2023-04-07T11:21:09.465Z,75.84
2023-04-07T11:22:46.604Z,74.77
2023-04-07T11:23:43.043Z,73.53
2023-04-07T11:24:43.014Z,74.57
2023-04-07T11:25:43.035Z,74.29
2023-04-07T11:26:42.999Z,75.74
2023-04-07T11:27:43.037Z,74.98
2023-04-07T11:28:42.940Z,74.81
2023-04-07T11:29:46.416Z,75.75
2023-04-07T11:30:46.473Z,75.09
2023-04-07T11:31:42.930Z,74.90
2023-04-07T11:32:42.957Z,73.06
2023-04-07T11:33:42.861Z,74.92
2023-04-07T11:34:42.845Z,75.91
2023-04-07T11:35:42.948Z,75.33
2023-04-07T11:36:44.340Z,73.96
2023-04-07T11:37:42.814Z,75.09
2023-04-07T11:38:43.020Z,76.85
2023-04-07T11:39:44.321Z,75.69
2023-04-07T11:50:46.625Z,73.10
2023-04-07T11:51:46.660Z,76.46
2023-04-07T11:53:16.201Z,75.75
2023-04-07T11:54:12.620Z,76.25
2023-04-07T11:55:12.655Z,74.21
2023-04-07T11:56:16.113Z,74.85
2023-04-07T11:57:14.088Z,76.81
2023-04-07T11:58:12.636Z,74.76
2023-04-07T11:59:12.520Z,74.30
2023-04-07T11:59:38.968Z,76.43
2023-04-07T12:00:38.944Z,76.17
2023-04-07T12:02:12.554Z,73.87
2023-04-07T12:03:12.737Z,74.74
2023-04-07T12:04:12.518Z,75.53
2023-04-07T12:05:16.086Z,75.85
2023-04-07T12:06:12.435Z,75.38
2023-04-07T12:07:12.438Z,75.46
2023-04-07T12:07:38.819Z,75.82
2023-04-07T12:09:12.426Z,75.29
2023-04-07T12:09:38.812Z,70.53
2023-04-07T12:11:12.350Z,74.51
2023-04-07T12:12:12.364Z,74.62
2023-04-07T12:13:13.865Z,74.06
2023-04-07T12:14:12.346Z,74.06
2023-04-07T12:14:38.720Z,73.60
2023-04-07T12:16:12.352Z,75.76
2023-04-07T12:17:12.272Z,72.43
2023-04-07T12:18:12.319Z,72.79
2023-04-07T12:19:12.223Z,73.55
2023-04-07T12:20:12.193Z,72.39
2023-04-07T12:21:12.217Z,73.36
2023-04-07T12:22:12.184Z,72.50
2023-04-07T12:23:12.173Z,73.74
2023-04-07T12:24:12.242Z,72.21
2023-04-07T12:24:38.552Z,73.42
2023-04-07T12:25:38.527Z,70.87
2023-04-07T12:26:38.505Z,72.87
2023-04-07T12:28:15.566Z,74.53
2023-04-07T12:29:12.188Z,74.60
2023-04-07T12:29:38.457Z,73.16
2023-04-07T12:31:11.988Z,72.26
2023-04-07T12:31:38.431Z,73.65
2023-04-07T12:33:11.968Z,74.08
2023-04-07T12:34:13.496Z,76.25
2023-04-07T12:35:11.967Z,74.28
2023-04-07T12:35:38.367Z,74.97
2023-04-07T12:36:38.458Z,74.74
2023-04-07T12:38:11.906Z,73.30
2023-04-07T12:38:38.316Z,73.63
2023-04-07T12:40:11.895Z,73.61
2023-04-07T12:41:12.071Z,72.97
2023-04-07T12:42:11.886Z,74.41
2023-04-07T12:43:11.791Z,74.33
2023-04-07T12:43:38.250Z,74.35
2023-04-07T12:45:11.754Z,74.91
2023-04-07T12:45:38.230Z,73.51
2023-04-07T12:47:11.749Z,73.59
2023-04-07T12:47:38.165Z,75.57
2023-04-07T12:49:11.776Z,73.64
2023-04-07T12:49:38.097Z,72.25
2023-04-07T12:51:11.655Z,72.43
2023-04-07T12:52:11.675Z,73.82
2023-04-07T12:53:11.648Z,71.27
2023-04-07T12:54:12.662Z,73.05
2023-04-07T12:55:13.097Z,73.98
2023-04-07T12:56:12.588Z,74.44
2023-04-07T12:57:11.549Z,72.41
2023-04-07T12:57:37.971Z,73.90
2023-04-07T12:59:11.624Z,74.58
2023-04-07T13:00:11.584Z,73.29
2023-04-07T13:01:11.522Z,73.99
2023-04-07T13:02:11.618Z,76.17
2023-04-07T13:03:13.132Z,74.44
2023-04-07T13:08:53.599Z,74.82